Logs for Chuck Dobbins, Alpine, TX, USA [DM80di]
Paging Controls
Date UTC KHz ID Location S/P ITU Region GSQ LSB USB Sec. Fmt. Power KM Miles
2021-03-28 1042 365 DPY Deer Park WA USA na DN17gx 50 2282 1418
2021-03-28 1041 350 CP 'Acore' Cahokia / St Louis IL USA na EM48xm 25 1545 960
2021-03-28 1027 360 PI 'Capok' St Petersburg / Clearwater FL USA na EL87px 2053 1275
2021-03-28 1026 368 VIQ Neillsville WI USA na EN44rn 25 1955 1215
2021-03-28 1014 359 GYG Grayling MI USA na EN74or 25 2299 1428
2021-03-28 1012 353 VV 'Junne' Greensboro GA USA na EM83lp 1979 1230
2021-03-28 1009 352 BVG 'Boll Weevil' Enterprise AL USA na EM71ai 1696 1054
2021-03-28 1006 365 AA 'Kenie' Fargo MN USA na EN17oa 100 1946 1209
2021-03-28 1002 353 IN 'Raize' International Falls MN USA na EN38il 100 2200 1367
2021-03-28 0951 352 VM 'Meana', Mena Intermountain Municipal AR USA na EM24xm 25 1018 632
2021-03-27 0940 362 RPX Round Up MT USA na DN56rl 25 1840 1144
2021-03-27 0450 359 YAZ Tofino BC CAN na CN79db 2784 1730
2021-03-27 0447 356 ON 'Okanagan' Penticton BC CAN na DN09fi 25 2496 1551
2021-03-27 0440 365 SYZ Shelbyville IL USA na EM59nj 25 1682 1045
2021-03-27 0435 356 PI 'Tungg' Peoria IL USA na EN50eo 40 1706 1060
2021-03-27 0425 360 PN Port-Menier / Ile Anticosti QC CAN na FN79tu 500 3919 2435
2021-03-27 0422 362 SB Sudbury ON CAN na EN96mp 400 2665 1656
2021-03-27 0421 363 RNB 'Rainbow' Millville NJ USA na FM29kk 50 2780 1728
2021-03-27 0418 359 YAZ Tofino BC CAN na CN79db 2784 1730
2021-03-27 0415 356 ZXE Barnes (Saskatoon) SK CAN na DO62rd 39 2434 1512
2021-03-27 0351 368 ROQ Ruston LA USA na EM32qo 25 1080 671
2021-03-27 0330 351 YKQ Waskaganish QC CAN na FO01pl 500 3120 1938
2021-03-27 0318 356 ODX Ord NE USA na EN01mo 25 1321 821
2021-03-27 0316 365 PAL Palma EQA sa FI07cx 1000 4402 2735
2021-03-27 0312 369 ZDX Coolidge Saint Johns ATG ca FK97cd 700 4481 2784
2021-03-27 0306 366 YMW Maniwaki QC CAN na FN26ae 500 2969 1845
2021-03-27 0301 365 FT 'Mufin' Fort Worth TX USA na EM12hv 25 663 412
2021-03-27 0254 359 GGF Grant NE USA na DN90du 1181 734
2021-03-27 0247 353 LI 'Lasky' Little Rock AR USA na EM34uq 400 1173 729
2021-03-27 0239 359 SDR Snyder TX USA na DM92mq 25 368 228
2021-03-27 0238 356 SJ 'Woole' San Angelo TX USA na DM91rg 319 198
2021-03-27 0235 350 RG 'Gally' Oklahoma City OK USA na EM15eh 400 791 492
2021-03-16 1222 298 3N Weyburn SK CAN na DN89cq 2149 1335
2021-02-25 0409 356 YBG Bagotville QC CAN na FN48ki 3401 2113
2021-02-23 0357 221 DYO 'Smuto' Rutland VT USA na FN33mq 3081 1914
2021-02-22 1151 341 SB 'Misha' South Bend IN USA na EN61vq 2009 1248
2021-02-22 1134 220 RBJ 'Robles' Tucson AZ USA na DM42hb 10 753 468
2021-02-22 1126 338 YPX Puvirnituq QC CAN na FP10ib 500 3841 2387
2021-02-22 1121 335 ZKF Kitchener (Wellington) ON CAN na EN93ul 15 2527 1570
2021-02-22 1109 339 OP 'Yates' Thomaston GA USA na EM72vw 1865 1159
2021-02-22 1103 335 CV 'Hisan' Clovis NM USA na DM84ji 447 278
2021-02-22 0240 420 FQ 'Montz' Fairmont MN USA na EN23tp 25 1691 1051
2021-02-22 0223 351 AE 'Dudle' Albuquerque NM USA na DM65pf 610 379
2021-02-22 0222 365 FT 'Mufin' Fort Worth TX USA na EM12hv 25 663 412
2021-02-22 0221 356 SJ 'Woole' San Angelo TX USA na DM91rg 319 198
2021-02-22 0220 408 JDM 'Wheatfield' Colby KS USA na DM99lm 25 1047 651
2021-02-22 0219 414 ATS Artesia NM USA na DM72su 25 287 178
2021-02-22 0218 400 ROB 'Robinson' Waco TX USA na EM11lm 649 403
2021-02-22 0218 400 AI 'Addmo' Ardmore OK USA na EM14mf 25 766 476
2021-02-22 0216 395 ULS Ulysses KS USA na DM97ho 834 518
2021-02-22 0214 385 CPZ 'Chaparrosa Ranch' La Pryor TX USA na DL98xv 25 390 242
2021-02-22 0213 380 OEL Oakley KS USA na DM99oc 25 1008 627
2021-02-22 0211 368 AN 'Alamo' San Antonio TX USA na EL09ro 400 504 313
2021-02-22 0210 359 SDR Snyder TX USA na DM92mq 25 368 228
2021-02-22 0209 353 LI 'Lasky' Little Rock AR USA na EM34uq 400 1173 729
2021-02-22 0208 350 RG 'Gally' Oklahoma City OK USA na EM15eh 400 791 492
2021-02-22 0207 330 MF 'Missi' Mc Allen TX USA na EL06ug 698 434
2021-02-22 0206 326 PKZ 'Pickens' Pensacola FL USA na EM60jk 400 1581 982
2021-02-22 0204 305 RO 'Topan' Roswell NM USA na DM73si 400 341 212
2021-02-22 0203 278 CEP 'Capitan' Ruidoso NM USA na DM73hl 25 381 237
2021-02-22 0202 272 LD 'Lubbi' Lubbock TX USA na DM93dp 25 412 256
2021-02-22 0200 242 EL 'Valtr' El Paso TX USA na DM61uu 400 297 185
2021-02-22 0200 251 AM 'Pande' Amarillo TX USA na DM95cd 400 562 349
2021-02-22 0157 341 FO 'Barro' Fort Dodge IA USA na EN22um 25 1591 988
2021-02-22 0150 338 JZ 'Newbn' Lawrence KS USA na EM28kv 25 1231 765
2021-02-21 1113 220 HLE Hailey ID USA na DN23vh 50 1714 1065
2021-02-21 0537 376 YAG Fort Frances ON CAN na EN38fq 40 2212 1374
2021-02-21 0515 397 ZHA Ancaster (Hamilton) ON CAN na EN93xe 14 2531 1572
2021-02-21 0507 341 ZLP Toronto (Meadowvale / Mississauga) ON CAN na FN03dp 40 2578 1602
2021-02-21 0503 233 QN Nakina ON CAN na EO60qe 400 2625 1631
2021-02-21 0428 338 ZEM Eastmain QC CAN na FO02rf 25 3182 1977
2021-02-21 0423 336 BV Champlain QC CAN na FN46iu 25 3325 2066
2021-02-21 0358 355 YWP Webequie ON CAN na EO62hx 100 2842 1766
2021-02-21 0354 317 ZZR 'Trenton (Apt)' Severn ON CAN na FN14eb 50 2748 1708
2021-02-21 0351 413 YHD Dryden ON CAN na EN39nu 250 2350 1460
2021-02-21 0349 409 YTA Pembroke ON CAN na FN15jt 25 2864 1779
2021-02-21 0344 408 SN 'St. Catharines' Saint Catharines ON CAN na FN03id 12 2583 1605
2021-02-21 0340 401 YPO Peawanuck ON CAN na EO74gx 125 3096 1924
2021-02-21 0337 399 ZHD 'Thunder' Dryden ON CAN na EN39qt 25 2354 1462
2021-02-21 0331 382 YPL Pickle Lake ON CAN na EO41vk 500 2594 1612
2021-02-21 0326 334 YER Fort Severn ON CAN na EO65ex 195 3115 1936
2021-02-21 0324 420 CFY 'Evans' Lake City SC USA na FM03cu 25 2280 1417
2021-02-21 0318 328 YTL Big Trout Lake ON CAN na EO53bt 1000 2835 1761
2021-02-21 0318 420 PK Olathe KS USA na EM28ps 25 1245 774
2021-02-21 0311 276 YEL Elliot Lake ON CAN na EN86qi 250 2542 1580
2021-02-21 0303 516 YWA Petawawa ON CAN na FN15iv 25 2862 1778
2021-02-21 0303 420 TU 'Veron' Tupelo MS USA na EM54oe 25 1464 910
2021-02-21 0259 344 SL 'Flory' Salina KS USA na EM18eq 1080 671
2021-02-21 0251 320 YQF Red Deer AB CAN na DO32bd 50 2561 1592
2021-02-21 0244 220 BX Blanc Sablon / Lourdes de Blanc Sablon QC CAN na GO11jk 2000 4453 2767
2021-02-20 1216 344 YC Calgary AB CAN na DO31bb 2451 1523
2021-02-20 1213 201 IP Mobile AZ USA na DM33tc 25 874 543
2021-02-20 1133 392 PNA 'Wenz' Pinedale WY USA na DN52ct 25 1487 924
2021-02-20 1126 365 AA 'Kenie' Fargo MN USA na EN17oa 100 1946 1209
2021-02-20 1123 362 RPX Round Up MT USA na DN56rl 25 1840 1144
2021-02-20 1120 353 LLD Lanai HI HWA oc BL10ms 2000 5397 3354
2021-02-20 0557 353 PG Portage MB CAN na EN09vu 25 2216 1377
2021-02-20 0535 344 JL 'Lunns' Joplin MO USA na EM27re 1137 706
2021-02-20 0515 379 BRA 'Broad River' Asheville NC USA na EM85sg 100 2055 1277
2021-02-20 0508 404 MOG Montague CA USA na CN81sr 25 2099 1304
2021-02-20 0458 344 XX Abbotsford BC CAN na CN89sa 2608 1620
2021-02-20 0445 368 SX Skookum (Cranbrook) BC CAN na DN29cw 500 2400 1491
2021-02-20 0443 362 SB Sudbury ON CAN na EN96mp 400 2665 1656
2021-02-20 0435 340 YY Mont Joli QC CAN na FN58un 500 3603 2239
2021-02-20 0432 335 YLD Chapleau ON CAN na EN87hs 100 2597 1614
2021-02-20 0430 326 YQK Kenora ON CAN na EN29st 200 2298 1428
2021-02-20 0427 428 POH Pocahontas IA USA na EN22qr 25 1595 991
2021-02-20 0420 375 SPH Springhill LA USA na EM32hw 25 1019 633
2021-02-20 0415 338 HR 'Sebas' Harlingen TX USA na EL16eh 25 746 463
2021-02-20 0414 344 CGQ 'Powell' Corsicana TX USA na EM12sb 715 444
2021-02-20 0411 332 QT Thunder Bay ON CAN na EN58gi 1000 2338 1452
2021-02-20 0359 426 UV 'Tunng' Oxford MS USA na EM54ej 25 1395 867
2021-02-20 0354 400 FN 'Colln' Fort Collins / Loveland CO USA na DN70mi 25 1117 694
2021-02-20 0351 391 DDP San Juan / Dorado / Luiz Munoz Marin Intl PR PTR ca FK68tl 2000 3981 2474
2021-02-20 0344 375 DS Searcy AR USA na EM45cc 25 1232 766
2021-02-20 0340 365 HQG Hugoton KS USA na DM97hd 25 785 488
2021-02-20 0336 356 ODX Ord NE USA na EN01mo 25 1321 821
2021-02-20 0324 332 FIS 'Fish Hook' Key West FL USA na EL94cn 400 2252 1399
2021-02-20 0311 344 JA 'Dinns' Jacksonville FL USA na EM90cl 400 2098 1303
2021-02-20 0308 338 RYN 'Ryan' Tucson AZ USA na DM42kd 400 732 455
2021-02-20 0307 341 OIN Oberlin KS USA na DM99rt 25 1090 677
2021-02-20 0305 341 DNI Denison TX USA na EM13pt 25 763 474
2021-02-08 0422 382 BT 'Herro' Burlington VT USA na FN34jm 3092 1921
2021-01-25 0329 326 SU 'Snoop' Saint Louis MO USA na EM48op 25 1497 930
2021-01-25 0324 330 SJ Patty PR PTR ca FK68wj 4009 2491
2021-01-25 0315 332 DN 'Julip' Danville IL USA na EN60fg 1830 1137
2021-01-25 0309 326 FC Fredericton NB CAN na FN65qw 1600 3631 2256
2021-01-25 0306 332 PH 'Phurn' Port Huron MI USA na EN82qu 2328 1447
2021-01-25 0251 329 SMY 'Soyya' Marianna FL USA na EM70ju 1769 1099
2021-01-24 1126 332 SG 'Depre' Green Bay WI USA na EN54wj 25 2074 1289
2021-01-24 1119 326 DC Princeton BC CAN na CN99rl 500 2552 1586
2021-01-24 0707 326 YQK Kenora ON CAN na EN29st 200 2298 1428
2021-01-24 0441 325 YJQ Bella Bella (Campbell Island) BC CAN na CO52we 3140 1951
2021-01-24 0430 332 HK 'Tawba' Hickory NC USA na EM95is 25 2168 1347
2021-01-24 0424 332 CZX Crosbyton TX USA na DM93jo 431 268
2021-01-24 0421 329 OU Ste-Foy QC CAN na FN46is 3321 2064
2021-01-24 0418 334 LH 'Egrow' Bloomington IL USA na EN50nn 1754 1090
2021-01-24 0415 332 IC 'Piche' Wichita KS USA na EM17gn 25 986 613
2021-01-24 0413 331 JV 'Catch' Jeffersonville IN USA na EM78dl 1877 1166
2021-01-24 0411 329 X2 Athabasca AB CAN na DO34jr 2813 1748
2021-01-24 0408 328 5J Coronation AB CAN na DO42gb 141 2495 1550
2021-01-24 0406 328 BZJ 'Bellgrove' Indiantown Gap PA USA na FN10rk 2691 1672
2021-01-24 0401 323 TAB Crown Point TRD ca FK91nd 4899 3044
2021-01-23 0722 332 POA Pahoa HI HWA oc BK29mn 400 5259 3267
2021-01-23 0706 329 YEK Arviat NU CAN na EP21xc 500 3491 2169
2021-01-23 0704 334 YER Fort Severn ON CAN na EO65ex 195 3115 1936
2021-01-23 0702 323 KR Squaw Schefferville QC CAN na FO64ot 250 3986 2476
2021-01-23 0700 332 XT Terrace BC CAN na CO54ri 3322 2064
2021-01-23 0655 332 QT Thunder Bay ON CAN na EN58gi 1000 2338 1452
2021-01-23 0416 332 XH Medicine Hat AB CAN na DO40oa 50 2265 1407
2021-01-23 0354 330 MF 'Missi' Mc Allen TX USA na EL06ug 698 434
2021-01-23 0350 328 YTL Big Trout Lake ON CAN na EO53bt 1000 2835 1761
2021-01-23 0348 329 CH 'Ashly' Charleston SC USA na EM92wx 400 2246 1395
2021-01-23 0333 320 YQF Red Deer AB CAN na DO32bd 50 2561 1592
2021-01-23 0330 332 YFM La Grande 4 QC CAN na FO33dr 2000 3540 2199
2021-01-23 0328 332 FIS 'Fish Hook' Key West FL USA na EL94cn 400 2252 1399
2021-01-23 0327 329 PMV Plattsmouth NE USA na EN20bw 25 1372 852
2021-01-23 0325 329 AAA 'Abraham' Lincoln IL USA na EN50hd 25 1693 1052
2021-01-23 0323 326 PKZ 'Pickens' Pensacola FL USA na EM60jk 400 1581 982
2021-01-23 0322 326 MA 'Farly' Midland TX USA na DM81ux 400 225 140
2021-01-23 0320 323 OUK Calhoun GA USA na EM74mj 24 1814 1127
2021-01-06 0347 382 BT 'Herro' Burlington VT USA na FN34jm 3092 1921
2021-01-05 0332 386 SP St. Pierre SPM na GN16vs 4433 2754
2021-01-05 0314 402 MQ Miquelon (Grande Miquelon) SPM na GN17tc 4425 2749
2021-01-01 0409 328 LC 'Blnap' Laconia NH USA na FN43fm 3184 1978
2020-12-27 0424 326 MA 'Farly' Midland TX USA na DM81ux 400 225 140
2020-12-27 0423 344 TKH 'Tallulah' Vicksburg LA USA na EM42lf 1220 758
2020-12-27 0419 420 TU 'Veron' Tupelo MS USA na EM54oe 25 1464 910
2020-12-27 0412 224 BH 'Mc Den' Birmingham AL USA na EM63nm 400 1625 1009
2020-12-27 0406 391 DDP San Juan / Dorado / Luiz Munoz Marin Intl PR PTR ca FK68tl 2000 3981 2474
2020-12-27 0404 344 JA 'Dinns' Jacksonville FL USA na EM90cl 400 2098 1303
2020-12-27 0358 251 DB 'Creke' Dublin GA USA na EM82ll 1972 1225
2020-12-27 0350 420 CFY 'Evans' Lake City SC USA na FM03cu 25 2280 1417
2020-12-27 0339 379 BRA 'Broad River' Asheville NC USA na EM85sg 100 2055 1277
2020-12-26 0459 245 LUA 'Caverns' Luray VA USA na FM08sq 25 2481 1542
2020-12-26 0437 223 DAA 'Davee' Fort Belvoir MD USA na FM18kp 2593 1611
2020-12-26 0421 209 SYS 'Stoystown' Somerset PA USA na FN00nc 25 2491 1548
2020-12-26 0416 204 GB 'Plazz' Buffalo NY USA na FN02ou 2607 1620
2020-12-26 0412 220 BX Blanc Sablon / Lourdes de Blanc Sablon QC CAN na GO11jk 2000 4453 2767
2020-12-26 0407 218 RL Red Lake ON CAN na EO31cb 1000 2444 1518
2020-12-26 0404 254 MB Manistee MI USA na EN64wg 2184 1357
2020-12-26 0358 221 RP 'Wickr' Rice Lake Airport, Carl's Field WI USA na EN45ch 1960 1218
2020-12-26 0344 269 PK 'Spida' Park Rapids MN USA na EN26mu 25 1982 1232
2020-12-26 0340 245 FS 'Rokky' Sioux Falls SD USA na EN13ol 100 1582 983
2020-12-26 0333 362 RPX Round Up MT USA na DN56rl 25 1840 1144
2020-12-26 0329 383 PI 'Tyhee' Pocatello ID USA na DN32rx 400 1607 999
2020-12-26 0321 353 AL 'Trina' Walla Walla WA USA na DN06ve 2160 1342
2020-12-26 0316 356 MEF Medford OR USA na CN82nj 2167 1347
2020-12-26 0309 404 MOG Montague CA USA na CN81sr 25 2099 1304
2020-12-26 0306 201 IP Mobile AZ USA na DM33tc 25 874 543
2020-12-25 1954 251 SV 'Cozey' Silver City NM USA na DM52xp 483 300
2020-12-25 1951 242 EL 'Valtr' El Paso TX USA na DM61uu 400 297 185
2020-12-18 1109 230 YMU Umiujaq QC CAN na FO16rm 3594 2233
2020-12-18 1042 266 GH Fort Good Hope NT CAN na CP56qg 4332 2691
2020-12-18 0457 248 YLA Aupaluk QC CAN na FO59eh 4106 2551
2020-12-18 0404 358 YKG Kangiqsujuaq QC CAN na FP41ao 1000 4167 2589
2020-12-07 0314 240 LE 'Lewie' Auburn (Lewiston) ME USA na FN43tx 3288 2043
2020-11-23 0347 245 UDG Darlington SC USA na FM04bk 25 2277 1415
2020-11-22 1047 248 KZ 'Buttonville' Stouffville (Toronto) ON CAN na FN03iw 25 2622 1629
2020-11-22 1043 257 TZ 'Gibraltar Point' Toronto Island ON CAN na FN03ho 25 2600 1615
2020-11-22 1038 248 UL Montreal QC CAN na FN35bl 1000 3083 1915
2020-11-22 1031 420 CFY 'Evans' Lake City SC USA na FM03cu 25 2280 1417
2020-11-22 1026 423 PCW Port Clinton OH USA na EN81nm 25 2240 1391
2020-11-22 1018 423 SIF 'Slammer' Reidsville NC USA na FM06cj 25 2313 1437
2020-11-22 0421 245 CB Cambridge Bay NU CAN na DP79lc 1000 4309 2677
2020-11-22 0411 253 DD 'Cobbs' Columbus OH USA na EM89lr 49 2143 1332
2020-11-22 0312 248 CG 'Dutch' Cape Girardeau MO USA na EM57dg 1502 933
2020-11-22 0309 257 FWC 'Wayne County' Fairfield IL USA na EM58tj 25 1663 1034
2020-11-22 0308 420 TU 'Veron' Tupelo MS USA na EM54oe 25 1464 910
2020-11-22 0259 426 IZS Montezuma GA USA na EM72xi 25 1878 1167
2020-11-22 0249 254 5B Summerside PE CAN na FN86bj 250 3849 2391
2020-11-22 0244 254 ZYC Calgary AB CAN na DO21xe 25 2468 1534
2020-11-22 0244 255 BS 'Creed' Austin TX USA na EM10dc 577 358
2020-11-22 0243 257 DT 'Pinck' Denton TX USA na EM13jg 25 694 431
2020-11-22 0239 245 PWF 'Sportys' Batavia OH USA na EM79vb 25 2022 1256
2020-11-22 0227 251 JZY Macomb IL USA na EN40rm 25 1640 1019
2020-11-22 0224 242 LKG 'Lindbergh' Americus GA USA na EM72we 25 1869 1161
2020-11-22 0221 240 CJ 'Calde' Springfield IL USA na EM59et 1654 1028
2020-11-22 0217 248 MOB 'Wisle' Mobile AL USA na EM50us 400 1475 917
2020-11-21 1054 426 UV 'Tunng' Oxford MS USA na EM54ej 25 1395 867
2020-11-21 0401 420 PK Olathe KS USA na EM28ps 25 1245 774
2020-11-21 0400 420 FQ 'Montz' Fairmont MN USA na EN23tp 25 1691 1051
2020-11-21 0357 257 LW Kelowna BC CAN na DO00hb 50 2551 1585
2020-11-21 0354 255 SW 'Blaki' Stillwater OK USA na EM16kf 50 894 556
2020-11-21 0350 254 SM Fort Smith AB CAN na DO49bx 400 3349 2081
2020-11-21 0344 253 GB 'Garno' Marshall MN USA na EN24bm 25 1718 1067
2020-11-21 0338 251 SV 'Cozey' Silver City NM USA na DM52xp 483 300
2020-11-21 0255 257 JYR York NE USA na EN10ev 25 1294 804
2020-11-21 0254 257 HCY Cowley WY USA na DN54sv 50 1669 1037
2020-11-21 0244 253 OC 'Nados' Nacogdoches TX USA na EM21pl 25 867 539
2020-11-21 0243 251 YCD Nanaimo BC CAN na CN89bd 500 2691 1672
2020-11-21 0239 250 FO Flin Flon MB CAN na DO94dq 1600 2710 1684
2020-11-21 0237 248 PQF Mesquite TX USA na EM12rt 25 731 454
2020-11-21 0234 248 QL Lethbridge AB CAN na DN39no 2274 1413
2020-11-21 0227 244 TH Thompson MB CAN na EO15bt 1000 2867 1781
2020-11-21 0225 245 FS 'Rokky' Sioux Falls SD USA na EN13ol 100 1582 983
2020-11-21 0224 242 ZT Port Hardy BC CAN na CO60gq 500 2996 1862
2020-11-21 0223 242 XC Cranbrook BC CAN na DN29cq 400 2376 1476
2020-11-21 0218 248 WG Winnipeg MB CAN na EN19hv 250 2236 1389
2020-11-21 0217 251 AM 'Pande' Amarillo TX USA na DM95cd 400 562 349
2020-11-21 0215 257 XE Saskatoon SK CAN na DO62oe 25 2440 1516
2020-10-26 0246 365 PAL Palma EQA sa FI07cx 1000 4402 2735
2020-10-26 0239 309 GPI Guapi CLM sa FJ12bn 500 4115 2557
2020-10-26 0237 344 UNU Juneau WI USA na EN53pk 1967 1222
2020-10-26 0230 369 ZDX Coolidge Saint Johns ATG ca FK97cd 700 4481 2784
2020-10-26 0224 233 AZN 'Amazon' St. Joseph MO USA na EM29nv 25 1329 826
2020-10-26 0220 388 CFJ Crawfordsville IN USA na EM69nx 25 1862 1157
2020-10-26 0212 363 RNB 'Rainbow' Millville NJ USA na FM29kk 50 2780 1728
2020-10-25 1053 209 SYS 'Stoystown' Somerset PA USA na FN00nc 25 2491 1548
2020-10-25 1038 296 LGD La Grande OR USA na DN15ai 25 2078 1291
2020-10-25 1023 266 ICK 'Nichols' Annette Island AK ALS na CO45eb 3523 2189
2020-10-25 1021 420 CFY 'Evans' Lake City SC USA na FM03cu 25 2280 1417
2020-10-25 1015 212 OZ 'Ruckr' Fort Rucker (Ozark) AL USA na EM71cf 1712 1064
2020-10-25 1013 407 BZ 'Bullo' Statesboro GA USA na EM92ek 25 2105 1308
2020-10-25 1007 344 JA 'Dinns' Jacksonville FL USA na EM90cl 400 2098 1303
2020-10-25 1003 385 DXB De Ridder LA USA na EM30hs 990 615
2020-10-25 1000 299 HW 'Cubla' Wilmington OH USA na EM89bi 2061 1281
2020-10-25 0958 365 MA Mayo YT CAN na CP23bp 500 4336 2694
2020-10-25 0953 290 YYH Taloyoak NU CAN na EP39fm 1000 4402 2735
2020-10-25 0950 284 RQY 'Randolph Co' Elkins WV USA na FM08bv 50 2369 1472
2020-10-25 0948 281 CA Cartwright NL CAN na GO13lr 1000 4529 2814
2020-10-25 0942 273 FK 'Airbe' Fort Campbell (Hopkinsville) KY USA na EM66hr 25 1668 1036
2020-10-25 0936 254 5B Summerside PE CAN na FN86bj 250 3849 2391
2020-10-25 0933 207 CL Charlo NB CAN na FN68sa 1000 3710 2305
2020-10-25 0931 206 QI Yarmouth NS CAN na FN63wt 500 3614 2246
2020-10-25 0929 263 DYQ 'Dulaney' Greenville TN USA na EM86nd 25 2036 1265
2020-10-25 0927 332 POA Pahoa HI HWA oc BK29mn 400 5259 3267
2020-10-25 0921 419 RYS 'Grosse Ile' Detroit / Grosse Ile MI USA na EN82kc 25 2252 1399
2020-10-25 0915 201 IP Mobile AZ USA na DM33tc 25 874 543
2020-10-25 0911 349 GW 'Teock' Greenwood MS USA na EM43wo 25 1330 826
2020-10-25 0233 345 GF 'Hiser' Grand Forks ND USA na EN17ju 2023 1257
2020-10-25 0226 362 RPX Round Up MT USA na DN56rl 25 1840 1144
2020-10-24 1051 383 PI 'Tyhee' Pocatello ID USA na DN32rx 400 1607 999
2020-10-24 1031 266 XD Edmonton AB CAN na DO33fp 2708 1682
2020-10-24 0403 245 FS 'Rokky' Sioux Falls SD USA na EN13ol 100 1582 983
2020-10-24 0358 275 GEY Greybull WY USA na DN54xm 50 1620 1007
2020-10-24 0344 356 ZF Yellowknife NT CAN na DP22sj 1000 3645 2265
2020-10-24 0337 391 DDP San Juan / Dorado / Luiz Munoz Marin Intl PR PTR ca FK68tl 2000 3981 2474
2020-10-24 0333 408 MW 'Pelly' Moses Lake WA USA na DN07ic 2292 1424
2020-10-24 0330 404 MOG Montague CA USA na CN81sr 25 2099 1304
2020-10-24 0310 198 DIW Dixon NC USA na FM14gn 2000 2499 1553
2020-10-24 0305 269 BEX Bloomfield IA USA na EN30sr 25 1535 954
2020-10-24 0257 396 YPH Inukjuak QC CAN na FO08wk 500 3677 2284
2020-10-24 0253 397 CIR Cairo IL USA na EM57jb 25 1532 952
2020-10-24 0247 350 NY Enderby BC CAN na DO00mp 500 2587 1607
2020-10-24 0235 290 QR Regina SK CAN na DO70ri 100 2224 1382
2020-10-24 0233 287 ZWG 'Stoney' Medicine Rock (Winnipeg) MB CAN na EN19jx 17 2248 1397
2020-10-24 0204 407 CO 'Petey' Colorado Springs CO USA na DM78pq 25 931 578
2020-10-24 0159 383 CNP Chappell NE USA na DN81sb 25 1196 743
2020-10-24 0151 365 AA 'Kenie' Fargo MN USA na EN17oa 100 1946 1209
2020-10-24 0147 353 LI 'Lasky' Little Rock AR USA na EM34uq 400 1173 729
2020-10-24 0145 332 QT Thunder Bay ON CAN na EN58gi 1000 2338 1452
2020-10-24 0143 278 CEP 'Capitan' Ruidoso NM USA na DM73hl 25 381 237
2020-10-24 0142 275 GUY Guymon OK USA na DM96fq 25 732 455
2020-10-24 0133 212 LIU Littlefield TX USA na DM83tw 25 418 259
2020-10-24 0131 341 OIN Oberlin KS USA na DM99rt 25 1090 677
2020-10-19 ERROR 223 MW 'Onida' Franklin OH USA na EM79un 2037 1266
2020-10-17 1125 410 WXYZ Unknown XUS xx
2020-10-17 1058 382 JNR 'North River' Unalakleet AK ALS na AP93ov 5414 3364
2020-10-17 1021 358 SIT Sitka AK ALS na CO26fu 3837 2384
2020-10-17 1002 396 CMJ 'Clam Cove' Ketchikan AK ALS na CO45di 3547 2204
2020-10-17 0930 341 ELF 'Elfee' Cold Bay AK ALS na AO85oh 1000 5348 3323
2020-10-17 0913 212 CGL Coghlan Island AK ALS na CO28pi 3901 2424
2020-10-06 ERROR 415 LO 'Targy' West Yellowstone MT USA na DN44jn 50 1711 1063
2020-09-28 0329 263 ZQT 'Superior' Thunder Bay ON CAN na EN58jj 50 2352 1462
2020-09-28 0317 266 ZMM 'Mirabel' Colomban (Montreal) QC CAN na FN25vq 20 3068 1906
2020-09-28 0301 266 ZHM Hamilton (Binbrook) ON CAN na FN03cd 50 2547 1582
2020-09-28 0251 515 OS 'Fuler' Columbus OH USA na EN80jb 25 2145 1333
2020-09-28 0211 263 DYQ 'Dulaney' Greenville TN USA na EM86nd 25 2036 1265
2020-09-28 0201 260 ST 'Tario' Saint Joseph MO USA na EM29nq 25 1311 815
2020-09-28 0155 260 UFX St. Felix de Valois QC CAN na FN36ge 25 3143 1953
2020-09-27 1133 269 YK 'Brilliant' Castlegar BC CAN na DN19eh 2411 1498
2020-09-27 1127 263 CVM 'Civic Memorial' Alton IL USA na EM48xv 1567 974
2020-09-27 1127 264 SZT 'Sandpoe' Sandpoint ID USA na DN18rg 100 2270 1411
2020-09-27 0329 264 JUY 'Judd' Andelusia AL USA na EM61th 25 1656 1029
2020-09-27 0251 268 ZWL Wollaston Lake SK CAN na DO88jc 1000 3085 1917
2020-09-27 0233 263 MOQ 'Mc Intosh' Fort Stewart GA USA na EM91ft 2113 1313
2020-09-27 0232 269 UDE Delta MB CAN na EO00ud 50 2246 1396
2020-09-27 0227 269 GN 'Wynds' Gainesville FL USA na EL89vq 25 2068 1285
2020-09-27 0217 266 XD Edmonton AB CAN na DO33fp 2708 1682
2020-09-27 0216 269 LOR 'Lowe' Fort Rucker (Ozark) AL USA na EM71di 1720 1068
2020-09-27 0208 263 YGK Kingston ON CAN na FN14qh 1000 2832 1760
2020-09-27 0153 269 BEX Bloomfield IA USA na EN30sr 25 1535 954
2020-09-27 0143 263 3Z Russell MB CAN na DO90is 2278 1416
2020-09-27 0139 260 CL 'Rowdy' College Station TX USA na EM10tl 703 437
2020-09-27 0135 524 HRD 'Hardin County' Kountze / Silsbee TX USA na EM20ui 25 903 561
2020-09-26 1204 266 PYX Perryton TX USA na DM96pj 25 727 452
2020-09-26 0315 267 HET Henryetta OK USA na EM15xj 25 909 565
2020-04-27 0944 391 FIQ 'Fiddlers' Morganton NC USA na EM95dr 25 2130 1324
2020-04-26 1049 385 OCC 'Ocean Cape' Yakutat AK ALS na CO09dn 4211 2616
2020-04-26 1045 397 ZSS Yellowhead (Saskatoon) SK CAN na DO62pf 25 2444 1519
2020-04-26 1042 398 YOD Cold Lake AB CAN na DO44uj 25 2724 1693
2020-04-26 1029 391 EEF 'Elephant' Sisters Island AK ALS na CO28ie 3916 2433
2020-04-26 1016 389 YWB Kelowna BC CAN na DN09et 2540 1578
2020-04-26 1011 386 HAU 'Hauser' Helena MT USA na DN46cn 25 1932 1200
2020-04-26 0951 388 CFJ Crawfordsville IN USA na EM69nx 25 1862 1157
2020-04-26 0951 389 TW 'Strik' Twin Falls ID USA na DN22tl 1649 1024
2020-04-26 0416 391 OO Oshawa ON CAN na FN03nw 7 2652 1648
2020-04-26 0347 396 YPH Inukjuak QC CAN na FO08wk 500 3677 2284
2020-04-26 0338 395 YL Lynn Lake MB CAN na DO96lt 1600 2949 1832
2020-04-26 0327 391 4W Kelsey MB CAN na EO16ra 25 2908 1807
2020-04-26 0325 388 MM Fort Mc Murray AB CAN na DO46hp 125 2983 1854
2020-04-26 0322 388 CDX 'Cumberland River' Somerset KY USA na EM76px 25 1902 1182
2020-04-26 0321 385 QV Yorkton SK CAN na DO81rf 100 2323 1443
2020-04-26 0319 385 JD 'Gooey' Belleville IL USA na EM58dl 1567 974
2020-04-26 0317 399 ZHD 'Thunder' Dryden ON CAN na EN39qt 25 2354 1462
2020-04-26 0314 397 JE 'Algoa' Jefferson City MO USA na EM38xn 1404 872
2020-04-26 0305 394 MKL 'Mersy' Jackson TN USA na EM55mm 25 1489 925
2020-04-26 0254 392 ML Charlevoix QC CAN na FN47uo 500 3426 2129
2020-04-26 0251 392 FMZ 'Beklof' Fairmont NE USA na EN10fo 25 1268 788
2020-04-26 0250 392 AGZ Wagner SD USA na EN03ub 25 1492 927
2020-04-26 0249 390 BR 'Burns' Burlington IL USA na EN40kp 25 1611 1001
2020-04-26 0246 388 OK 'Preso' Preston (Okmulgee) OK USA na EM25as 25 940 584
2020-04-26 0241 385 HO 'Hossy' Hot Springs AR USA na EM34jk 50 1084 674
2020-04-26 0240 385 DXB De Ridder LA USA na EM30hs 990 615
2020-04-26 0239 385 LN 'Potts' Lincoln NE USA na EN10or 45 1311 815
2020-04-25 0945 386 SYF St. Francis KS USA na DM99cr 25 1057 657
2020-04-25 0339 387 CAV Clarion IA USA na EN32cr 25 1633 1015
2020-04-25 0311 397 CIR Cairo IL USA na EM57jb 25 1532 952
2020-04-25 0307 394 SP 'Snore' Spencer IA USA na EN23if 1613 1003
2020-04-25 0303 393 BZ 'Fossi' Clinton OK USA na EM05jk 25 704 437
2020-04-25 0301 393 BR 'Depoo' Brownsville TX USA na EL15fx 775 482
2020-04-25 0259 392 XVG Longville MN USA na EN26vx 25 2020 1255
2020-04-25 0256 392 PNA 'Wenz' Pinedale WY USA na DN52ct 25 1487 924
2020-04-25 0255 392 ML 'Sabar' Monroe LA USA na EM32wk 1123 698
2020-04-25 0255 395 ULS Ulysses KS USA na DM97ho 834 518
2020-04-25 0253 391 DDP San Juan / Dorado / Luiz Munoz Marin Intl PR PTR ca FK68tl 2000 3981 2474
2020-04-25 0243 391 GXD Nacogdoches TX USA na EM21pp 25 869 540
2020-04-25 0231 396 CRS Corsicana TX USA na EM12ta 25 721 448
2020-04-13 0431 389 PVC Provincetown MA USA na FN42vb 25 3248 2018
2020-04-13 0407 364 ZHZ 'Split Crow' Halifax NS CAN na FN84et 3831 2380
2020-04-10 0426 385 ZNS 'Midtown' Halifax NS CAN na FN84gx 25 3847 2391
2020-04-10 0310 396 JC Rigolet NL CAN na GO04se 500 4455 2768
2020-04-08 0322 406 YLJ Meadow Lake SK CAN na DO54qd 15 2674 1661
2020-03-05 1121 330 WOB UNID XUN xx
2020-02-24 1151 370 YBV Berens River MB CAN na EO12li 25 2506 1557
2020-02-24 1142 329 BQP Bastrop LA USA na EM42bs 25 1152 716
2020-02-24 1134 349 GW 'Teock' Greenwood MS USA na EM43wo 25 1330 826
2020-02-24 1124 400 QQ Comox BC CAN na CN79ms 2795 1737
2020-02-24 1116 379 BRA 'Broad River' Asheville NC USA na EM85sg 100 2055 1277
2020-02-24 1113 375 DS Searcy AR USA na EM45cc 25 1232 766
2020-02-24 0431 382 YPL Pickle Lake ON CAN na EO41vk 500 2594 1612
2020-02-24 0421 400 AHQ Wahoo NE USA na EN11qf 1366 849
2020-02-24 0420 400 ROB 'Robinson' Waco TX USA na EM11lm 649 403
2020-02-24 0413 362 SB Sudbury ON CAN na EN96mp 400 2665 1656
2020-02-24 0406 340 YY Mont Joli QC CAN na FN58un 500 3603 2239
2020-02-24 0403 330 MF 'Missi' Mc Allen TX USA na EL06ug 698 434
2020-02-24 0357 328 YTL Big Trout Lake ON CAN na EO53bt 1000 2835 1761
2020-02-24 0355 332 YFM La Grande 4 QC CAN na FO33dr 2000 3540 2199
2020-02-24 0352 341 DNI Denison TX USA na EM13pt 25 763 474
2020-02-24 0348 351 AE 'Dudle' Albuquerque NM USA na DM65pf 610 379
2020-02-24 0340 385 DXB De Ridder LA USA na EM30hs 990 615
2020-02-23 1147 346 YXL Sioux Lookout ON CAN na EO40bc 1000 2408 1496
2020-02-23 1141 374 HY 'Nette' Hays KS USA na EM08js 1022 635
2020-02-23 1131 347 AFK Nebraska City NE USA na EN20bo 1341 833
2020-02-23 0433 383 PI 'Tyhee' Pocatello ID USA na DN32rx 400 1607 999
2020-02-23 0430 392 FMZ 'Beklof' Fairmont NE USA na EN10fo 25 1268 788
2020-02-23 0421 329 PMV Plattsmouth NE USA na EN20bw 25 1372 852
2020-02-23 0406 359 GGF Grant NE USA na DN90du 1181 734
2020-02-23 0404 365 FT 'Mufin' Fort Worth TX USA na EM12hv 25 663 412
2020-02-23 0401 379 RUE Russellville AR USA na EM35kg 25 1129 701
2020-02-23 0355 385 CPZ 'Chaparrosa Ranch' La Pryor TX USA na DL98xv 25 390 242
2020-02-23 0345 326 PKZ 'Pickens' Pensacola FL USA na EM60jk 400 1581 982
2020-02-23 0341 365 AA 'Kenie' Fargo MN USA na EN17oa 100 1946 1209
2020-02-23 0332 335 BV 'Almnd' Batesville AR USA na EM45cq 25 1258 782
2020-02-23 0324 356 ODX Ord NE USA na EN01mo 25 1321 821
2020-02-23 0319 368 ROQ Ruston LA USA na EM32qo 25 1080 671
2020-02-23 0317 380 OEL Oakley KS USA na DM99oc 25 1008 627
2020-02-23 0316 383 CNP Chappell NE USA na DN81sb 25 1196 743
2020-02-23 0254 332 FIS 'Fish Hook' Key West FL USA na EL94cn 400 2252 1399
2020-02-23 0244 376 LC 'Pickl' Columbus OH USA na EM89nv 25 2163 1344
2020-02-22 1153 353 LI 'Lasky' Little Rock AR USA na EM34uq 400 1173 729
2020-02-22 1151 350 NY Enderby BC CAN na DO00mp 500 2587 1607
2020-02-22 1140 332 QT Thunder Bay ON CAN na EN58gi 1000 2338 1452
2020-02-22 1133 380 GC 'Deryk' Gillette WY USA na DN74fg 25 1555 966
2020-02-22 0418 386 SYF St. Francis KS USA na DM99cr 25 1057 657
2020-02-22 0409 391 GXD Nacogdoches TX USA na EM21pp 25 869 540
2020-02-22 0358 332 CZX Crosbyton TX USA na DM93jo 431 268
2020-02-22 0351 341 OIN Oberlin KS USA na DM99rt 25 1090 677
2020-02-22 0350 344 CGQ 'Powell' Corsicana TX USA na EM12sb 715 444
2020-02-22 0330 396 CRS Corsicana TX USA na EM12ta 25 721 448
2020-02-22 0305 400 FN 'Colln' Fort Collins / Loveland CO USA na DN70mi 25 1117 694
2020-02-22 0245 395 ULS Ulysses KS USA na DM97ho 834 518
2020-02-22 0243 391 DDP San Juan / Dorado / Luiz Munoz Marin Intl PR PTR ca FK68tl 2000 3981 2474
2020-02-22 0240 326 MA 'Farly' Midland TX USA na DM81ux 400 225 140
2020-02-22 0238 338 RYN 'Ryan' Tucson AZ USA na DM42kd 400 732 455
2020-02-22 0237 350 RG 'Gally' Oklahoma City OK USA na EM15eh 400 791 492
2020-02-22 0236 359 SDR Snyder TX USA na DM92mq 25 368 228
2020-01-27 0409 380 FIL Horta / Faial Island AZR eu HM58pm 6748 4193
2020-01-27 0347 378 HO Hopedale NL CAN na FO95vk 4395 2731
2020-01-27 0302 373 2Q Mont-Laurier QC CAN na FN26go 25 3024 1879
2020-01-27 0240 377 YRR Greely (Ottawa) ON CAN na FN25fg 25 2954 1835
2020-01-27 0236 382 TRI 'Piarco' Port of Spain TRD ca FK90go 1200 4878 3031
2020-01-27 0231 380 UMB 'Culvr' Milledgeville GA USA na EM83kd 25 1967 1222
2020-01-27 0229 379 YPQ Peterborough ON CAN na FN04sf 25 2696 1675
2020-01-27 0226 373 YXK Rimouski QC CAN na FN58rl 25 3582 2226
2020-01-27 0224 372 CQD 'Cascade' Erie PA USA na EN92wc 2473 1537
2020-01-27 0221 370 VOF 'Alcovy' Covington GA USA na EM83cp 1910 1187
2020-01-26 1140 382 AW 'Waton' Arlington WA USA na CN88wb 50 2515 1562
2020-01-26 1134 378 AP Active Pass (Mayne Island) BC CAN na CN88iu 25 2638 1639
2020-01-26 1121 376 YAG Fort Frances ON CAN na EN38fq 40 2212 1374
2020-01-26 1115 372 YCO Coppermine / Kugluktuk NU CAN na DP27kt 1000 4231 2629
2020-01-26 1107 375 7B St Thomas ON CAN na EN92ks 25 2431 1511
2020-01-26 1102 378 RJ Roberval QC CAN na FN38un 500 3333 2071
2020-01-26 1033 375 FS Fort Simpson NT CAN na CP91is 280 3719 2311
2020-01-26 0437 376 LC 'Pickl' Columbus OH USA na EM89nv 25 2163 1344
2020-01-26 0410 383 LB 'Panck' Liberal KS USA na DM96mx 779 484
2020-01-26 0335 374 EX Rutland (Kelowna) BC CAN na DN09hw 2540 1578
2020-01-26 0330 383 PI 'Tyhee' Pocatello ID USA na DN32rx 400 1607 999
2020-01-26 0327 382 IRS Sturgis MI USA na EN71gt 25 2069 1285
2020-01-26 0323 381.5 SJX 'St James' Beaver Island MI USA na EN75fq 25 2321 1442
2020-01-26 0316 375 LF 'Laffs' Lafayette LA USA na EM40bg 1135 705
2020-01-26 0307 382 MW 'Jonny' Marion IL USA na EM57mu 25 1590 988
2020-01-26 0304 382 YE Fort Nelson BC CAN na CO88pt 100 3475 2159
2020-01-26 0259 378 UX Hall Beach NU CAN na EP98is 400 4507 2801
2020-01-26 0257 376 K2 Olds-Didsbury AB CAN na DO21wr 2526 1569
2020-01-26 0254 372 ZPA Glass (Prince Albert) SK CAN na DO73ff 25 2547 1583
2020-01-26 0251 372 UQN 'Onyun' Vidalia GA USA na EM82uf 25 2042 1269
2020-01-25 0452 379 BRA 'Broad River' Asheville NC USA na EM85sg 100 2055 1277
2020-01-25 0448 379 DL 'Pykla' Duluth MN USA na EN36tu 2077 1290
2020-01-25 0443 375 BM Balmoral MB CAN na EO10id 25 2264 1407
2020-01-25 0440 370 YBV Berens River MB CAN na EO12li 25 2506 1557
2020-01-25 0437 383 CNP Chappell NE USA na DN81sb 25 1196 743
2020-01-25 0434 382 YPL Pickle Lake ON CAN na EO41vk 500 2594 1612
2020-01-25 0431 382 SP 'Huskk' Springfield IL USA na EM59cs 25 1640 1019
2020-01-25 0424 380 GC 'Deryk' Gillette WY USA na DN74fg 25 1555 966
2020-01-25 0419 374 HY 'Nette' Hays KS USA na EM08js 1022 635
2020-01-25 0418 371 FQW 'Walter Hill' Murfreesboro TN USA na EM65tx 25 1727 1073
2020-01-25 0415 371 GW Jarpik Kuujjuarapik QC CAN na FO15cg 500 3442 2139
2020-01-25 0410 380 OEL Oakley KS USA na DM99oc 25 1008 627
2020-01-25 0342 379 UG 'Wauke' Waukegan (Chicago) IL USA na EN62cl 25 1954 1214
2020-01-25 0301 379 RUE Russellville AR USA na EM35kg 25 1129 701
2020-01-25 0255 375 DS Searcy AR USA na EM45cc 25 1232 766
2020-01-01 1205 220 HLE Hailey ID USA na DN23vh 50 1714 1065
2020-01-01 1155 284 YOC Old Crow YT CAN na CP07bn 4765 2961
2020-01-01 1148 396 UV 'Bales' Martinsville VA USA na FM06ao 25 2302 1430
2020-01-01 1037 281 CRN 'Cairn Mountain' Sparrevohn AK ALS na BP21fc 5066 3148
2020-01-01 0439 302 CAI Canouan Island VCT ca FK92hq 4762 2959
2020-01-01 0423 300 SCR San Cristobal GAL sa EI59ec 3780 2349
2020-01-01 0420 309 GPI Guapi CLM sa FJ12bn 500 4115 2557
2019-12-31 1133 388 UN 'Penue' State College PA USA na FN10dv 2612 1623
2019-12-31 1103 219 CX 'Latle' Harrisburg PA USA na FN10le 2642 1642
2019-12-30 1201 383 PI 'Tyhee' Pocatello ID USA na DN32rx 400 1607 999
2019-12-30 1113 368 VIQ Neillsville WI USA na EN44rn 25 1955 1215
2019-12-30 0413 400 NHK 'Patuxent' Patuxent River MD USA na FM18tg 2648 1645
2019-12-30 0400 245 LUA 'Caverns' Luray VA USA na FM08sq 25 2481 1542
2019-12-30 0354 237 EZF 'Shannon' Fredericksburg VA USA na FM18gg 25 2555 1588
2019-12-29 1159 414 IME 'Mount Edgecumbe' Sitka AK ALS na CO27hb 3843 2388
2019-12-29 1153 386 HAU 'Hauser' Helena MT USA na DN46cn 25 1932 1200
2019-12-29 1142 391 EEF 'Elephant' Sisters Island AK ALS na CO28ie 3916 2433
2019-12-29 1137 275 GEY Greybull WY USA na DN54xm 50 1620 1007
2019-12-29 1133 356 MEF Medford OR USA na CN82nj 2167 1347
2019-12-29 1121 332 POA Pahoa HI HWA oc BK29mn 400 5259 3267
2019-12-29 0326 248 MOB 'Wisle' Mobile AL USA na EM50us 400 1475 917
2019-12-29 0326 420 CFY 'Evans' Lake City SC USA na FM03cu 25 2280 1417
2019-12-29 0317 329 CH 'Ashly' Charleston SC USA na EM92wx 400 2246 1395
2019-12-29 0245 368 ROQ Ruston LA USA na EM32qo 25 1080 671
2019-12-29 0242 273 FK 'Airbe' Fort Campbell (Hopkinsville) KY USA na EM66hr 25 1668 1036
2019-12-29 0237 369 ZDX Coolidge Saint Johns ATG ca FK97cd 700 4481 2784
2019-12-29 0232 298 KU Kook Islands (Kitaa) GRL na GP34xb 5168 3211
2019-12-29 0228 280 GYZ 'Camp Guernsey' Guernsey WY USA na DN72pf 50 1323 822
2019-12-29 0225 392 AGZ Wagner SD USA na EN03ub 25 1492 927
2019-12-29 0223 233 AZN 'Amazon' St. Joseph MO USA na EM29nv 25 1329 826
2019-12-29 0219 227 FZ 'Eaves' St. Louis MO USA na EM48rq 1518 943
2019-12-29 0216 426 UV 'Tunng' Oxford MS USA na EM54ej 25 1395 867
2019-12-28 1152 353 LLD Lanai HI HWA oc BL10ms 2000 5397 3354
2019-12-28 1130 210 IOB Mount Sterling KY USA na EM88ab 49 2002 1244
2019-12-28 1119 250 UGS 'University' Athens / Albany OH USA na EM89wg 25 2198 1365
2019-12-28 1114 428 POH Pocahontas IA USA na EN22qr 25 1595 991
2019-12-28 1100 227 SQ 'Pnthr' Connersville IN USA na EM79ks 25 1983 1232
2019-12-28 1053 382 SP 'Huskk' Springfield IL USA na EM59cs 25 1640 1019
2019-12-28 1049 365 JN 'Balll' Muncie IN USA na EN70ie 1991 1237
2019-12-28 1041 356 PI 'Tungg' Peoria IL USA na EN50eo 40 1706 1060
2019-12-28 1039 296 LGD La Grande OR USA na DN15ai 25 2078 1291
2019-12-28 1038 379 BRA 'Broad River' Asheville NC USA na EM85sg 100 2055 1277
2019-12-28 0426 407 CHD Chandler AZ USA na DM43cg 25 829 515
2019-12-28 0319 299 HW 'Cubla' Wilmington OH USA na EM89bi 2061 1281
2019-12-28 0312 278 ADG Adrian MI USA na EN71xu 50 2172 1349
2019-12-28 0305 365 FKV 'Flowery Branch' Gainesville GA USA na EM84be 25 1909 1186
2019-12-28 0303 212 SJ Saint John NB CAN na FN75cj 1000 3679 2286
2019-12-28 0300 364 ZHZ 'Split Crow' Halifax NS CAN na FN84et 3831 2380
2019-12-28 0257 372 OZN Prins Christian Sund / Kitaa GRL na GP80kb 5504 3420
2019-12-28 0255 335 BV 'Almnd' Batesville AR USA na EM45cq 25 1258 782
2019-12-27 0418 353 IN 'Raize' International Falls MN USA na EN38il 100 2200 1367
2019-12-27 0353 214 CHX Choix (Sinaloa) MEX ca DL56ur 602 374
2019-12-27 0343 224 BH 'Mc Den' Birmingham AL USA na EM63nm 400 1625 1009
2019-12-27 0341 344 JA 'Dinns' Jacksonville FL USA na EM90cl 400 2098 1303
2019-12-26 1210 408 MW 'Pelly' Moses Lake WA USA na DN07ic 2292 1424
2019-12-26 1209 385 OCC 'Ocean Cape' Yakutat AK ALS na CO09dn 4211 2616
2019-12-26 1202 347 SBX Shelby MT USA na DN48bm 50 2135 1326
2019-12-26 1157 284 FHR Friday Harbor WA USA na CN88lm 2599 1615
2019-12-26 1151 341 DB Burwash YT CAN na CP01mi 200 4293 2668
2019-12-26 1147 317 VC La Ronge SK CAN na DO75ic 500 2754 1711
2019-12-26 1143 233 ALJ Johnstone Point Island AK ALS na BP60ql 1000 4593 2854
2019-12-26 1141 257 XE Saskatoon SK CAN na DO62oe 25 2440 1516
2019-12-26 1136 207 PY Fort Chipewyan AB CAN na DO48ks 50 3209 1994
2019-12-26 1128 365 MA Mayo YT CAN na CP23bp 500 4336 2694
2019-12-26 1118 408 Z7 Claresholm AB CAN na DO30ea 50 2338 1453
2019-12-26 1112 321 YSY Sachs Harbour NT CAN na CQ71ix 4804 2985
2019-12-26 1107 222 WY Wrigley NT CAN na CP83gf 3915 2432
2019-12-26 0511 359 GYG Grayling MI USA na EN74or 25 2299 1428
2019-12-26 0510 270 ZNF 'Wabana' Saint John's NL CAN na GN37no 4693 2916
2019-12-26 0507 344 UNU Juneau WI USA na EN53pk 1967 1222
2019-12-26 0501 198 DIW Dixon NC USA na FM14gn 2000 2499 1553
2019-12-26 0458 204 GB 'Plazz' Buffalo NY USA na FN02ou 2607 1620
2019-12-26 0449 269 BEX Bloomfield IA USA na EN30sr 25 1535 954
2019-12-26 0441 206 QI Yarmouth NS CAN na FN63wt 500 3614 2246
2019-12-26 0432 207 CL Charlo NB CAN na FN68sa 1000 3710 2305
2019-12-26 0422 245 FS 'Rokky' Sioux Falls SD USA na EN13ol 100 1582 983
2019-12-26 0414 407 CO 'Petey' Colorado Springs CO USA na DM78pq 25 931 578
2019-12-26 0410 379 DL 'Pykla' Duluth MN USA na EN36tu 2077 1290
2019-12-26 0405 350 NY Enderby BC CAN na DO00mp 500 2587 1607
2019-12-26 0404 347 AFK Nebraska City NE USA na EN20bo 1341 833
2019-12-26 0400 332 FIS 'Fish Hook' Key West FL USA na EL94cn 400 2252 1399
2019-12-26 0356 275 GUY Guymon OK USA na DM96fq 25 732 455
2019-12-26 0344 395 YL Lynn Lake MB CAN na DO96lt 1600 2949 1832
2019-12-26 0342 300 YIV Island Lake MB CAN na EO23qu 500 2713 1685
2019-12-26 0335 344 XX Abbotsford BC CAN na CN89sa 2608 1620
2019-12-26 0331 280 QX Gander NL CAN na GN28px 1000 4576 2844
2019-12-26 0318 340 YY Mont Joli QC CAN na FN58un 500 3603 2239
2019-12-26 0315 329 YEK Arviat NU CAN na EP21xc 500 3491 2169
2019-12-26 0253 366 YMW Maniwaki QC CAN na FN26ae 500 2969 1845
2019-12-26 0251 362 YZS Coral Harbour NU CAN na EP84id 500 4019 2497
2019-12-26 0249 353 LI 'Lasky' Little Rock AR USA na EM34uq 400 1173 729
2019-12-26 0248 349 GW 'Teock' Greenwood MS USA na EM43wo 25 1330 826
2019-12-26 0245 338 RYN 'Ryan' Tucson AZ USA na DM42kd 400 732 455
2019-12-26 0233 418 CW 'Mossy' Lake Charles LA USA na EM30jh 25 1007 626
2019-12-26 0231 415 CBC West End (Cayman Brac) CYM ca FK09bq 600 2670 1659
2019-12-26 0228 400 FN 'Colln' Fort Collins / Loveland CO USA na DN70mi 25 1117 694
2019-12-26 0226 391 DDP San Juan / Dorado / Luiz Munoz Marin Intl PR PTR ca FK68tl 2000 3981 2474
2019-12-26 0222 386 SYF St. Francis KS USA na DM99cr 25 1057 657
2019-12-26 0213 218 RL Red Lake ON CAN na EO31cb 1000 2444 1518
2019-12-26 0210 402 CV Carlz Carlsbad NM USA na DM72tg 222 138
2019-12-26 0206 383 CNP Chappell NE USA na DN81sb 25 1196 743
2019-12-26 0205 380 OEL Oakley KS USA na DM99oc 25 1008 627
2019-12-26 0200 350 RG 'Gally' Oklahoma City OK USA na EM15eh 400 791 492
2019-12-26 0159 346 YXL Sioux Lookout ON CAN na EO40bc 1000 2408 1496
2019-12-26 0155 332 CZX Crosbyton TX USA na DM93jo 431 268
2019-12-26 0152 305 RO 'Topan' Roswell NM USA na DM73si 400 341 212
2019-12-26 0148 326 MA 'Farly' Midland TX USA na DM81ux 400 225 140
2019-12-21 1131 245 LUA 'Caverns' Luray VA USA na FM08sq 25 2481 1542
2019-12-20 0413 257 ME 'Maxtn' Maxton NC USA na FM04gr 25 2318 1440
2019-12-20 0403 250 UGS 'University' Athens / Albany OH USA na EM89wg 25 2198 1365
2019-12-19 0414 400 NHK 'Patuxent' Patuxent River MD USA na FM18tg 2648 1645
2019-12-18 1213 328 5J Coronation AB CAN na DO42gb 141 2495 1550
2019-12-06 1247 420 V7BE5 Deepwater Pontus XOC iw 125
2019-12-04 1143 209 IB Atikokan ON CAN na EN48ft 250 2295 1426
2019-11-24 1144 365 DPY Deer Park WA USA na DN17gx 50 2282 1418
2019-11-24 1058 356 AQP Appleton MN USA na EN15xf 1783 1108
2019-11-24 1051 352 VM 'Meana', Mena Intermountain Municipal AR USA na EM24xm 25 1018 632
2019-11-24 1037 350 CBG Cambridge MN USA na EN35in 1918 1191
2019-11-24 0440 361 HB 'Himun' Burlington NC USA na FM05ex 2320 1442
2019-11-24 0437 353 VV 'Junne' Greensboro GA USA na EM83lp 1979 1230
2019-11-24 0431 364 ZHZ 'Split Crow' Halifax NS CAN na FN84et 3831 2380
2019-11-24 0427 356 AY St Anthony NL CAN na GO11wj 25 4525 2812
2019-11-24 0417 367 FVX Farmville VA USA na FM07si 2449 1522
2019-11-24 0343 356 HEU 'Hunter' Schenectady NY USA na FN32au 2975 1848
2019-11-24 0329 362 AK Akron OH USA na EN91hb 2331 1448
2019-11-24 0323 359 GYG Grayling MI USA na EN74or 25 2299 1428
2019-11-24 0313 350 CP 'Acore' Cahokia / St Louis IL USA na EM48xm 25 1545 960
2019-11-24 0305 368 VX Dafoe SK CAN na DO71ru 80 2391 1486
2019-11-24 0254 359 LXL Little Falls MN USA na EN25tw 25 1912 1188
2019-11-24 0250 356 PI 'Tungg' Peoria IL USA na EN50eo 40 1706 1060
2019-11-24 0248 363 RNB 'Rainbow' Millville NJ USA na FM29kk 50 2780 1728
2019-11-24 0245 369 ZDX Coolidge Saint Johns ATG ca FK97cd 700 4481 2784
2019-11-24 0241 366 EOK Keokuk IA USA na EN40gl 25 1578 980
2019-11-24 0239 365 JN 'Balll' Muncie IN USA na EN70ie 1991 1237
2019-11-24 0236 362 TC 'Tuske' Tuscaloosa AL USA na EM63dd 1542 958
2019-11-24 0233 362 SUR Fitzgerald GA USA na EM81io 25 1948 1210
2019-11-24 0226 360 SW 'Roadd' Warroad MN USA na EN28ju 25 2178 1353
2019-11-24 0216 353 GVB 'Bogalusa' George R Carr Memorial Airfield LA USA na EM50bv 1324 823
2019-11-23 1218 350 D7 Kincardine ON CAN na EN94ee 25 2473 1536
2019-11-23 1214 368 VIQ Neillsville WI USA na EN44rn 25 1955 1215
2019-11-23 1206 368 PNM Princeton MN USA na EN35en 25 1904 1183
2019-11-23 1152 353 DI 'Noson' Dickinson ND USA na DN86pq 25 1818 1129
2019-11-23 1151 353 IN 'Raize' International Falls MN USA na EN38il 100 2200 1367
2019-11-23 1151 356 MEF Medford OR USA na CN82nj 2167 1347
2019-11-23 1148 353 LLD Lanai HI HWA oc BL10ms 2000 5397 3354
2019-11-23 1140 368 ROQ Ruston LA USA na EM32qo 25 1080 671
2019-11-23 1125 353 AB 'Tomhi' Abilene TX USA na EM02dh 438 272
2019-11-23 1122 351 AE 'Dudle' Albuquerque NM USA na DM65pf 610 379
2019-11-23 1116 350 LF 'Flufy' Lufkin TX USA na EM21of 857 532
2019-11-23 0458 365 PAL Palma EQA sa FI07cx 1000 4402 2735
2019-11-23 0454 353 QG Saint Clair Beach (Windsor) ON CAN na EN82nh 25 2281 1417
2019-11-23 0446 368 ZYZ Toronto (The Queensway) ON CAN na FN03fo 25 2588 1608
2019-11-23 0441 351 MSQ Culpeper VA USA na FM18bk 25 2524 1568
2019-11-23 0436 356 ON 'Okanagan' Penticton BC CAN na DN09fi 25 2496 1551
2019-11-23 0426 368 ZP Sandspit BC CAN na CO43ce 3402 2114
2019-11-23 0422 365 MA Mayo YT CAN na CP23bp 500 4336 2694
2019-11-23 0416 365 YGZ Grise Fiord NU CAN na EQ86nk 100 5239 3255
2019-11-23 0411 356 ZXE Barnes (Saskatoon) SK CAN na DO62rd 39 2434 1512
2019-11-23 0408 356 ZF Yellowknife NT CAN na DP22sj 1000 3645 2265
2019-11-23 0405 350 RB Resolute Bay NU CAN na EQ24mr 3000 4957 3080
2019-11-23 0402 361 E3 Wabasca AB CAN na DO35cx 2957 1837
2019-11-23 0340 362 YZS Coral Harbour NU CAN na EP84id 500 4019 2497
2019-11-23 0335 351 YKQ Waskaganish QC CAN na FO01pl 500 3120 1938
2019-11-23 0329 359 YQZ Quesnel BC CAN na CO82sx 500 2938 1826
2019-11-23 0327 355 YWP Webequie ON CAN na EO62hx 100 2842 1766
2019-11-23 0321 367 R5 Pukatawagan MB CAN na DO95ir 2827 1757
2019-11-23 0318 365 FT 'Mufin' Fort Worth TX USA na EM12hv 25 663 412
2019-11-23 0316 365 HQG Hugoton KS USA na DM97hd 25 785 488
2019-11-23 0315 362 RPX Round Up MT USA na DN56rl 25 1840 1144
2019-11-23 0311 362 SC Sherbrooke QC CAN na FN45cl 25 3234 2009
2019-11-23 0307 359 YAZ Tofino BC CAN na CN79db 2784 1730
2019-11-23 0300 356 SJ 'Woole' San Angelo TX USA na DM91rg 319 198
2019-11-23 0247 368 SX Skookum (Cranbrook) BC CAN na DN29cw 500 2400 1491
2019-11-23 0244 368 AN 'Alamo' San Antonio TX USA na EL09ro 400 504 313
2019-11-23 0243 366 YMW Maniwaki QC CAN na FN26ae 500 2969 1845
2019-11-23 0242 365 AA 'Kenie' Fargo MN USA na EN17oa 100 1946 1209
2019-11-23 0240 362 SB Sudbury ON CAN na EN96mp 400 2665 1656
2019-11-23 0237 362 6T Foremost AB CAN na DN49gl 41 2224 1382
2019-11-23 0232 360 PN Port-Menier / Ile Anticosti QC CAN na FN79tu 500 3919 2435
2019-11-23 0230 359 GGF Grant NE USA na DN90du 1181 734
2019-11-23 0230 359 SDR Snyder TX USA na DM92mq 25 368 228
2019-11-23 0227 356 ODX Ord NE USA na EN01mo 25 1321 821
2019-11-23 0224 353 PG Portage MB CAN na EN09vu 25 2216 1377
2019-11-23 0220 353 LI 'Lasky' Little Rock AR USA na EM34uq 400 1173 729
2019-11-23 0218 350 NY Enderby BC CAN na DO00mp 500 2587 1607
2019-11-23 0215 350 RG 'Gally' Oklahoma City OK USA na EM15eh 400 791 492
2019-11-17 1047 257 TZ 'Gibraltar Point' Toronto Island ON CAN na FN03ho 25 2600 1615
2019-11-17 1042 277 GI UNID XUN xx
2019-11-17 1033 401 Y8 Drummondville QC CAN na FN35tu 126 3206 1992
2019-11-14 0358 410 BOR Seven Borealis / Subsea 7 XOE iw 18
2019-11-09 1251 389 YWB Kelowna BC CAN na DN09et 2540 1578
2019-11-09 1244 374 EX Rutland (Kelowna) BC CAN na DN09hw 2540 1578
2019-11-09 1237 325 YJQ Bella Bella (Campbell Island) BC CAN na CO52we 3140 1951
2019-11-09 1231 332 WC White Rock (Abbotsford) BC CAN na CN89oa 2625 1631
2019-11-09 1217 402 M3 Kindersley SK CAN na DO51jm 2396 1489
2019-11-09 1213 406 YLJ Meadow Lake SK CAN na DO54qd 15 2674 1661
2019-11-09 1205 394 DQ Dawson Creek BC CAN na CO95xr 50 3100 1926
2019-11-09 0511 392 ML Charlevoix QC CAN na FN47uo 500 3426 2129
2019-11-09 0503 378 RJ Roberval QC CAN na FN38un 500 3333 2071
2019-11-09 0456 366 YMW Maniwaki QC CAN na FN26ae 500 2969 1845
2019-11-09 0449 417 HQT 'Harnett' Coats NC USA na FM05pk 25 2394 1488
2019-11-09 0442 363 RNB 'Rainbow' Millville NJ USA na FM29kk 50 2780 1728
2019-11-09 0438 351 MSQ Culpeper VA USA na FM18bk 25 2524 1568
2019-11-09 0433 272 YQA Muskoka ON CAN na FN05ia 400 2679 1664
2019-11-09 0431 260 YAT 'Wapisk' Attawapiskat ON CAN na EO82sw 125 3044 1891
2019-11-09 0427 248 FRT 'Fairmont' Spartanburg SC USA na EM94av 400 2094 1301
2019-11-09 0424 237 EZF 'Shannon' Fredericksburg VA USA na FM18gg 25 2555 1588
2019-11-09 0418 223 DAA 'Davee' Fort Belvoir MD USA na FM18kp 2593 1611
2019-11-06 1204 410 ZQ CCGS Sir Wilfrid Laurier BC CAN na
2019-10-28 0253 335 BV 'Almnd' Batesville AR USA na EM45cq 25 1258 782
2019-10-28 0243 341 OW 'Higuy' Owensboro KY USA na EM67kp 1726 1073
2019-10-28 0240 341 CQN 'Daisy' Chattanooga TN USA na EM75kd 50 1814 1127
2019-10-28 0235 335 AWS 'Lawson' Columbus GA USA na EM72lh 1784 1108
2019-10-28 0213 344 IWJ 'Early County' Blakely GA USA na EM71ok 25 1806 1122
2019-10-27 1111 344 XX Abbotsford BC CAN na CN89sa 2608 1620
2019-10-27 1102 347 PA Prince Albert SK CAN na DO73cf 25 2549 1583
2019-10-27 1059 338 ZU Whitecourt AB CAN na DO24gb 2799 1739
2019-10-27 1052 343 YZH Slave Lake AB CAN na DO25oh 282 2910 1808
2019-10-27 0252 338 JZ 'Newbn' Lawrence KS USA na EM28kv 25 1231 765
2019-10-27 0250 349 GW 'Teock' Greenwood MS USA na EM43wo 25 1330 826
2019-10-27 0247 345 GF 'Hiser' Grand Forks ND USA na EN17ju 2023 1257
2019-10-27 0245 344 UNU Juneau WI USA na EN53pk 1967 1222
2019-10-27 0243 344 TKH 'Tallulah' Vicksburg LA USA na EM42lf 1220 758
2019-10-27 0236 342 ST 'Hussk' St Cloud MN USA na EN35al 25 1883 1170
2019-10-27 0234 341 SB 'Misha' South Bend IN USA na EN61vq 2009 1248
2019-10-27 0229 336 LF La Salle MB CAN na EN19ip 50 2211 1374
2019-10-27 0227 347 YK 'Cagur' Yankton NE USA na EN12iu 1502 933
2019-10-27 0225 347 SBX Shelby MT USA na DN48bm 50 2135 1326
2019-10-27 0222 347 GC 'Pieve' Garden City KS USA na DM97pt 25 874 543
2019-10-27 0218 344 SL 'Flory' Salina KS USA na EM18eq 1080 671
2019-10-27 0217 344 JA 'Dinns' Jacksonville FL USA na EM90cl 400 2098 1303
2019-10-27 0213 341 FO 'Barro' Fort Dodge IA USA na EN22um 25 1591 988
2019-10-27 0212 341 CCJ 'Clark Co' Springfield OH USA na EM89cu 25 2090 1298
2019-10-27 0205 338 HR 'Sebas' Harlingen TX USA na EL16eh 25 746 463
2019-10-27 0203 338 TT 'Stutt' Stuttgart AR USA na EM44fm 25 1231 765
2019-10-27 0202 335 BV 'Almnd' Batesville AR USA na EM45cq 25 1258 782
2019-10-27 0200 335 BK 'CHRLZ' Brookings SD USA na EN14mi 25 1665 1035
2019-10-26 0310 344 CGQ 'Powell' Corsicana TX USA na EM12sb 715 444
2019-10-26 0308 344 YC Calgary AB CAN na DO31bb 2451 1523
2019-10-26 0255 341 HRX Hereford TX USA na DM84uu 25 518 322
2019-10-26 0251 346 YXL Sioux Lookout ON CAN na EO40bc 1000 2408 1496
2019-10-26 0244 338 YPX Puvirnituq QC CAN na FP10ib 500 3841 2387
2019-10-26 0230 335 YLD Chapleau ON CAN na EN87hs 100 2597 1614
2019-10-26 0228 340 YY Mont Joli QC CAN na FN58un 500 3603 2239
2019-10-26 0210 347 AFK Nebraska City NE USA na EN20bo 1341 833
2019-10-26 0202 344 POY Powell WY USA na DN54ou 25 1672 1039
2019-10-26 0157 341 DNI Denison TX USA na EM13pt 25 763 474
2019-10-26 0147 341 OIN Oberlin KS USA na DM99rt 25 1090 677
2019-10-26 0144 338 RYN 'Ryan' Tucson AZ USA na DM42kd 400 732 455
2019-10-26 0142 335 DR 'Kotti' Del Rio TX USA na DL99mk 284 176
2019-10-25 1125 221 9A Hanna AB CAN na DO41bp 50 2460 1529
2019-10-16 1144 225 XAA Kent TX USA na DM71va 88 55
2019-09-29 1058 386 SYF St. Francis KS USA na DM99cr 25 1057 657
2019-09-29 0325 418 CW 'Mossy' Lake Charles LA USA na EM30jh 25 1007 626
2019-09-29 0325 420 V7BE2 Deepwater Thalassa XOC iw
2019-09-29 0311 397 ZSS Yellowhead (Saskatoon) SK CAN na DO62pf 25 2444 1519
2019-09-29 0309 391 DDP San Juan / Dorado / Luiz Munoz Marin Intl PR PTR ca FK68tl 2000 3981 2474
2019-09-29 0306 295 8C Fairview AB CAN na DO06sb 3083 1916
2019-09-29 0302 400 FN 'Colln' Fort Collins / Loveland CO USA na DN70mi 25 1117 694
2019-09-29 0301 396 CRS Corsicana TX USA na EM12ta 25 721 448
2019-09-29 0300 395 ULS Ulysses KS USA na DM97ho 834 518
2019-09-29 0258 385 CPZ 'Chaparrosa Ranch' La Pryor TX USA na DL98xv 25 390 242
2019-09-29 0256 356 SJ 'Woole' San Angelo TX USA na DM91rg 319 198
2019-09-29 0251 320 TY Tyler / Indoo TX USA na EM22gj 100 815 506
2019-09-29 0249 311 GK 'Jembo' Fort Smith AR USA na EM25sh 25 1024 636
2019-09-29 0247 305 RO 'Topan' Roswell NM USA na DM73si 400 341 212
2019-09-28 1115 359 SDR Snyder TX USA na DM92mq 25 368 228
2019-09-28 1113 353 LI 'Lasky' Little Rock AR USA na EM34uq 400 1173 729
2019-09-28 1112 350 RG 'Gally' Oklahoma City OK USA na EM15eh 400 791 492
2019-09-28 1110 344 POY Powell WY USA na DN54ou 25 1672 1039
2019-09-28 1105 329 HMA Hondo TX USA na EL09ji 25 448 278
2019-09-28 1046 368 SX Skookum (Cranbrook) BC CAN na DN29cw 500 2400 1491
2019-09-28 1044 365 HQG Hugoton KS USA na DM97hd 25 785 488
2019-09-28 1038 346 YXL Sioux Lookout ON CAN na EO40bc 1000 2408 1496
2019-09-28 1033 341 OIN Oberlin KS USA na DM99rt 25 1090 677
2019-09-28 1031 338 RYN 'Ryan' Tucson AZ USA na DM42kd 400 732 455
2019-09-28 1030 335 DR 'Kotti' Del Rio TX USA na DL99mk 284 176
2019-09-28 1026 332 FIS 'Fish Hook' Key West FL USA na EL94cn 400 2252 1399
2019-09-28 1021 278 CEP 'Capitan' Ruidoso NM USA na DM73hl 25 381 237
2019-09-28 0318 326 MA 'Farly' Midland TX USA na DM81ux 400 225 140
2019-09-22 1103 250 2J Grand Forks BC CAN na DN09sa 2419 1503
2019-09-22 1033 374 EX Rutland (Kelowna) BC CAN na DN09hw 2540 1578
2019-09-22 1017 362 RPX Round Up MT USA na DN56rl 25 1840 1144
2019-09-21 1109 391 TK Telkwa (Smithers) BC CAN na CO64mq 3276 2035
2019-09-16 1031 233 ALJ Johnstone Point Island AK ALS na BP60ql 1000 4593 2854
2019-09-15 0921 395 5V Drumheller AB CAN na DO31om 50 2469 1534
2019-09-14 0251 250 UAC 'Eric' Poste Montagnais QC CAN na FO71dv 500 3912 2431
2019-09-12 0933 385 QV Yorkton SK CAN na DO81rf 100 2323 1443
2019-08-25 1131 320 YQF Red Deer AB CAN na DO32bd 50 2561 1592
2019-08-25 0911 326 PKZ 'Pickens' Pensacola FL USA na EM60jk 400 1581 982
2019-08-25 0901 332 HK 'Tawba' Hickory NC USA na EM95is 25 2168 1347
2019-08-25 0319 332 IC 'Piche' Wichita KS USA na EM17gn 25 986 613
2019-08-25 0316 330 MF 'Missi' Mc Allen TX USA na EL06ug 698 434
2019-08-25 0312 328 YTL Big Trout Lake ON CAN na EO53bt 1000 2835 1761
2019-08-25 0310 326 YQK Kenora ON CAN na EN29st 200 2298 1428
2019-08-24 0953 329 PMV Plattsmouth NE USA na EN20bw 25 1372 852
2019-08-24 0942 320 TY Tyler / Indoo TX USA na EM22gj 100 815 506
2019-08-24 0937 332 CZX Crosbyton TX USA na DM93jo 431 268
2019-08-24 0933 332 QT Thunder Bay ON CAN na EN58gi 1000 2338 1452
2019-08-24 0930 332 FIS 'Fish Hook' Key West FL USA na EL94cn 400 2252 1399
2019-08-24 0305 326 MA 'Farly' Midland TX USA na DM81ux 400 225 140
2019-02-25 1047 224 QM Moncton NB CAN na FN76rc 400 3792 2356
2019-02-25 1044 230 AQE 'Alwood' Greenville NC USA na FM15hq 2517 1564
2019-02-25 1041 230 ZUC Ignace ON CAN na EN49dk 50 2349 1459
2019-02-25 1038 230 BU 'Boutn' Columbus OH USA na EM89jt 2134 1326
2019-02-25 1035 216 YFA Fort Albany ON CAN na EO92de 200 3019 1876
2019-02-25 1034 236 BW 'Noora' Bowling Green KY USA na EM36fv 1188 738
2019-02-25 1032 239 OJ High Level AB CAN na DO18kn 350 3298 2049
2019-02-25 1029 236 YZA Ashcroft BC CAN na CO90iq 500 2690 1671
2019-02-25 1025 236 DO 'Dougy' Blue Lake (Minocqua) WI USA na EN55du 25 2107 1309
2019-02-25 1022 235 CN Cochrane ON CAN na EN99mb 100 2826 1756
2019-02-25 1015 215 YTR Trenton ON CAN na FN14he 25 2772 1722
2019-02-25 1013 214 K8 Nemiscau QC CAN na FO11wq 2000 3275 2035
2019-02-25 1010 215 ZWW 'Boine' Muddywater (Winnipeg) MB CAN na EN19it 13.5 2229 1385
2019-02-25 1006 205 GM 'Wilze' Wilmington NC USA na FM14ci 2467 1533
2019-02-25 0303 239 5Q Fontanges QC CAN na FO44jn 3726 2315
2019-02-25 0259 231 BU 'Klump' Buffalo NY USA na FN03qa 2627 1632
2019-02-25 0257 239 HKF 'Hook Field' Middletown OH USA na EM79sl 25 2021 1255
2019-02-25 0247 221 HM Hamilton (Carluke) ON CAN na EN93xc 25 2527 1570
2019-02-25 0245 218 YUY Rouyn QC CAN na FN08me 500 2886 1793
2019-02-25 0243 212 SJ Saint John NB CAN na FN75cj 1000 3679 2286
2019-02-25 0241 209 SYS 'Stoystown' Somerset PA USA na FN00nc 25 2491 1548
2019-02-25 0240 208 YSK Sanikiluaq NU CAN na FO06jm 400 3477 2161
2019-02-25 0238 207 CL Charlo NB CAN na FN68sa 1000 3710 2305
2019-02-25 0237 207 FD Brantford ON CAN na EN93tb 2500 1554
2019-02-25 0235 206 AP 'Felps' Alpena MI USA na EN84fx 2394 1488
2019-02-25 0231 233 QN Nakina ON CAN na EO60qe 400 2625 1631
2019-02-25 0228 219 AY 'Wiket' Waycross GA USA na EM81th 2036 1265
2019-02-25 0226 221 QU Grande Prairie AB CAN na DO05od 50 3004 1866
2019-02-25 0224 236 OW Ramsayville (Ottawa) ON CAN na FN25fi 60 2958 1838
2019-02-25 0219 233 AZN 'Amazon' St. Joseph MO USA na EM29nv 25 1329 826
2019-02-25 0217 232 GP Gaspe QC CAN na FN78ts 400 3882 2412
2019-02-25 0213 224 BH 'Mc Den' Birmingham AL USA na EM63nm 400 1625 1009
2019-02-25 0210 221 HS 'Hanco' Bay Saint Louis MS USA na EM50gk 25 1366 848
2019-02-25 0208 221 BO 'Booie' Bristol (Johnston-Kingsport) TN USA na EM86sj 2079 1292
2019-02-25 0205 212 OZ 'Ruckr' Fort Rucker (Ozark) AL USA na EM71cf 1712 1064
2019-02-25 0203 201 ZWN 'Downs' Winnipeg (Snowhill) MB CAN na EN19ix 50 2247 1396
2019-02-25 0202 201 YKX Kirkland Lake ON CAN na FN08bf 200 2833 1760
2019-02-25 0156 230 YBM St Bruno de Guigues QC CAN na FN07gk 25 2808 1745
2019-02-25 0155 227 CPC 'Camp' Whiteville NC USA na FM04pg 25 2383 1480
2019-02-25 0154 230 BNZ Abbeville LA USA na EL39wx 25 1114 692
2019-02-25 0152 224 MO Moosonee ON CAN na EO91qg 400 3003 1866
2019-02-25 0152 227 TNZ 'Lawrence Co.' Walnut Ridge AR USA na EM46me 25 1349 838
2019-02-25 0150 224 BK Baker Lake NU CAN na EP14xh 1000 3813 2369
2019-02-25 0149 220 BX Blanc Sablon / Lourdes de Blanc Sablon QC CAN na GO11jk 2000 4453 2767
2019-02-25 0147 219 YMG Manitouwadge ON CAN na EN79bb 100 2565 1594
2019-02-25 0146 218 AL 'Alpos' Alton (St Louis MO) IL USA na EM58au 1570 976
2019-02-25 0144 212 UC 'Obion' Union City TN USA na EM56mh 25 1519 944
2019-02-25 0141 211 AN 'Bogga' Anniston AL USA na EM73am 25 1709 1062
2019-02-25 0140 205 LNH Millen GA USA na EM92av 25 2074 1289
2019-02-24 0347 209 ITR 'Kit Carson' Burlington CO USA na DM89uf 25 995 618
2019-02-24 0345 209 IB Atikokan ON CAN na EN48ft 250 2295 1426
2019-02-24 0325 200 UAB Anahim Lake BC CAN na CO72jj 1000 3012 1871
2019-02-24 0321 236 ZHT 'Forks' Winnipeg MB CAN na EN19ku 50 2237 1390
2019-02-24 0320 235 9H La Grande 3 QC CAN na FO13vn 250 3397 2110
2019-02-24 0315 234 TX 'Tecco' Texarkana AR USA na EM33am 25 984 612
2019-02-24 0308 223 YYW Armstrong ON CAN na EO50lh 100 2533 1574
2019-02-24 0305 223 FS 'Wizer' Fort Smith AR USA na EM25vi 1046 650
2019-02-24 0302 212 HP 'Anger' Hammond LA USA na EM40so 1269 788
2019-02-24 0300 381.5 SJX 'St James' Beaver Island MI USA na EN75fq 25 2321 1442
2019-02-24 0259 207 YNE Norway House MB CAN na EO13bx 1000 2668 1658
2019-02-24 0255 201 BV 'Dewie' Bartlesville OK USA na EM16xu 25 1012 629
2019-02-23 1055 233 BR Brandon MB CAN na DN99xv 25 2194 1363
2019-02-23 1050 224 DN Dauphin MB CAN na DO91xc 25 2327 1446
2019-02-23